sensor_id;sensor_type;location;lat;lon;timestamp;pressure;altitude;pressure_sealevel;temperature;humidity
72118;BME280;59992;47.490;8.736;2023-10-13T00:00:49;96853.56;;;11.84;88.64
72118;BME280;59992;47.490;8.736;2023-10-13T00:03:46;96855.48;;;11.80;88.80
72118;BME280;59992;47.490;8.736;2023-10-13T00:06:36;96860.76;;;11.77;91.39
72118;BME280;59992;47.490;8.736;2023-10-13T00:09:27;96858.88;;;11.72;89.03
72118;BME280;59992;47.490;8.736;2023-10-13T00:12:21;96858.15;;;11.69;88.76
72118;BME280;59992;47.490;8.736;2023-10-13T00:15:12;96857.57;;;11.65;88.48
72118;BME280;59992;47.490;8.736;2023-10-13T00:18:03;96852.63;;;11.61;88.51
72118;BME280;59992;47.490;8.736;2023-10-13T00:21:00;96853.02;;;11.55;90.54
72118;BME280;59992;47.490;8.736;2023-10-13T00:24:01;96854.77;;;11.50;91.57
72118;BME280;59992;47.490;8.736;2023-10-13T00:26:55;96856.90;;;11.46;91.64
72118;BME280;59992;47.490;8.736;2023-10-13T00:29:46;96856.40;;;11.43;91.17
72118;BME280;59992;47.490;8.736;2023-10-13T00:32:36;96855.58;;;11.39;92.80
72118;BME280;59992;47.490;8.736;2023-10-13T00:35:29;96851.20;;;11.35;92.20
72118;BME280;59992;47.490;8.736;2023-10-13T00:38:25;96848.94;;;11.31;90.48
72118;BME280;59992;47.490;8.736;2023-10-13T00:41:16;96844.88;;;11.27;90.73
72118;BME280;59992;47.490;8.736;2023-10-13T00:44:07;96835.10;;;11.23;91.53
72118;BME280;59992;47.490;8.736;2023-10-13T00:46:57;96834.15;;;11.20;91.60
72118;BME280;59992;47.490;8.736;2023-10-13T00:49:48;96836.17;;;11.18;92.08
72118;BME280;59992;47.490;8.736;2023-10-13T00:52:39;96837.73;;;11.16;92.20
72118;BME280;59992;47.490;8.736;2023-10-13T00:55:30;96841.17;;;11.13;90.40
72118;BME280;59992;47.490;8.736;2023-10-13T00:58:23;96839.23;;;11.11;90.37
72118;BME280;59992;47.490;8.736;2023-10-13T01:01:16;96846.93;;;11.09;92.05
72118;BME280;59992;47.490;8.736;2023-10-13T01:04:11;96844.48;;;11.07;92.12
72118;BME280;59992;47.490;8.736;2023-10-13T01:07:03;96839.37;;;11.04;91.06
72118;BME280;59992;47.490;8.736;2023-10-13T01:09:57;96835.45;;;11.01;90.83
72118;BME280;59992;47.490;8.736;2023-10-13T01:12:47;96835.44;;;11.01;89.99
72118;BME280;59992;47.490;8.736;2023-10-13T01:15:41;96834.96;;;10.99;90.84
72118;BME280;59992;47.490;8.736;2023-10-13T01:18:31;96836.52;;;10.97;90.55
72118;BME280;59992;47.490;8.736;2023-10-13T01:21:21;96830.94;;;10.94;91.01
72118;BME280;59992;47.490;8.736;2023-10-13T01:24:16;96827.03;;;10.90;90.64
72118;BME280;59992;47.490;8.736;2023-10-13T01:27:12;96829.48;;;10.86;92.02
72118;BME280;59992;47.490;8.736;2023-10-13T01:30:10;96827.09;;;10.84;90.55
72118;BME280;59992;47.490;8.736;2023-10-13T01:33:12;96827.28;;;10.82;90.88
72118;BME280;59992;47.490;8.736;2023-10-13T01:36:04;96825.20;;;10.81;92.06
72118;BME280;59992;47.490;8.736;2023-10-13T01:38:58;96822.44;;;10.78;92.79
72118;BME280;59992;47.490;8.736;2023-10-13T01:41:50;96822.84;;;10.75;92.18
72118;BME280;59992;47.490;8.736;2023-10-13T01:44:44;96823.25;;;10.72;92.68
72118;BME280;59992;47.490;8.736;2023-10-13T01:47:34;96825.17;;;10.69;92.59
72118;BME280;59992;47.490;8.736;2023-10-13T01:50:25;96827.27;;;10.68;93.82
72118;BME280;59992;47.490;8.736;2023-10-13T01:53:18;96828.90;;;10.66;92.95
72118;BME280;59992;47.490;8.736;2023-10-13T01:56:09;96825.35;;;10.62;92.01
72118;BME280;59992;47.490;8.736;2023-10-13T01:59:03;96827.72;;;10.59;94.09
72118;BME280;59992;47.490;8.736;2023-10-13T02:01:54;96826.23;;;10.55;93.31
72118;BME280;59992;47.490;8.736;2023-10-13T02:04:47;96824.14;;;10.53;93.77
72118;BME280;59992;47.490;8.736;2023-10-13T02:07:45;96825.95;;;10.49;93.21
72118;BME280;59992;47.490;8.736;2023-10-13T02:10:35;96824.17;;;10.47;93.48
72118;BME280;59992;47.490;8.736;2023-10-13T02:13:32;96821.84;;;10.44;94.17
72118;BME280;59992;47.490;8.736;2023-10-13T02:16:30;96826.06;;;10.42;94.31
72118;BME280;59992;47.490;8.736;2023-10-13T02:19:21;96821.11;;;10.40;95.09
72118;BME280;59992;47.490;8.736;2023-10-13T02:22:16;96814.52;;;10.36;92.91
72118;BME280;59992;47.490;8.736;2023-10-13T02:25:16;96818.74;;;10.39;94.13
72118;BME280;59992;47.490;8.736;2023-10-13T02:28:24;96818.41;;;10.38;94.08
72118;BME280;59992;47.490;8.736;2023-10-13T02:31:17;96820.21;;;10.37;93.75
72118;BME280;59992;47.490;8.736;2023-10-13T02:34:13;96817.83;;;10.35;93.17
72118;BME280;59992;47.490;8.736;2023-10-13T02:37:03;96819.40;;;10.33;95.15
72118;BME280;59992;47.490;8.736;2023-10-13T02:39:54;96821.01;;;10.30;94.76
72118;BME280;59992;47.490;8.736;2023-10-13T02:42:47;96820.81;;;10.28;94.70
72118;BME280;59992;47.490;8.736;2023-10-13T02:45:37;96820.70;;;10.26;93.33
72118;BME280;59992;47.490;8.736;2023-10-13T02:48:28;96821.14;;;10.25;94.59
72118;BME280;59992;47.490;8.736;2023-10-13T02:51:28;96818.90;;;10.23;93.98
72118;BME280;59992;47.490;8.736;2023-10-13T02:54:24;96816.21;;;10.21;94.20
72118;BME280;59992;47.490;8.736;2023-10-13T02:57:19;96815.43;;;10.19;95.02
72118;BME280;59992;47.490;8.736;2023-10-13T03:00:12;96809.93;;;10.17;94.99
72118;BME280;59992;47.490;8.736;2023-10-13T03:03:06;96801.11;;;10.11;94.19
72118;BME280;59992;47.490;8.736;2023-10-13T03:06:00;96806.69;;;10.14;95.07
72118;BME280;59992;47.490;8.736;2023-10-13T03:08:51;96801.52;;;10.12;95.23
72118;BME280;59992;47.490;8.736;2023-10-13T03:11:41;96801.41;;;10.10;95.28
72118;BME280;59992;47.490;8.736;2023-10-13T03:14:37;96803.13;;;10.10;95.68
72118;BME280;59992;47.490;8.736;2023-10-13T03:17:27;96801.86;;;10.08;95.73
72118;BME280;59992;47.490;8.736;2023-10-13T03:20:22;96801.48;;;10.08;95.12
72118;BME280;59992;47.490;8.736;2023-10-13T03:23:19;96803.09;;;10.08;93.87
72118;BME280;59992;47.490;8.736;2023-10-13T03:26:12;96798.60;;;10.08;94.44
72118;BME280;59992;47.490;8.736;2023-10-13T03:29:05;96795.20;;;10.07;95.58
72118;BME280;59992;47.490;8.736;2023-10-13T03:31:59;96796.09;;;10.07;94.20
72118;BME280;59992;47.490;8.736;2023-10-13T03:34:56;96790.03;;;10.02;94.48
72118;BME280;59992;47.490;8.736;2023-10-13T03:38:00;96780.35;;;9.94;94.37
72118;BME280;59992;47.490;8.736;2023-10-13T03:40:52;96781.60;;;9.96;93.97
72118;BME280;59992;47.490;8.736;2023-10-13T03:43:56;96775.92;;;9.92;94.58
72118;BME280;59992;47.490;8.736;2023-10-13T03:46:57;96763.52;;;9.84;94.95
72118;BME280;59992;47.490;8.736;2023-10-13T03:49:58;96767.14;;;9.87;95.22
72118;BME280;59992;47.490;8.736;2023-10-13T03:53:02;96768.08;;;9.85;94.66
72118;BME280;59992;47.490;8.736;2023-10-13T03:55:54;96769.92;;;9.83;95.01
72118;BME280;59992;47.490;8.736;2023-10-13T03:58:58;96766.26;;;9.81;95.26
72118;BME280;59992;47.490;8.736;2023-10-13T04:01:55;96763.02;;;9.78;95.44
72118;BME280;59992;47.490;8.736;2023-10-13T04:04:50;96763.86;;;9.79;96.07
72118;BME280;59992;47.490;8.736;2023-10-13T04:07:44;96765.14;;;9.78;95.97
72118;BME280;59992;47.490;8.736;2023-10-13T04:11:02;96766.41;;;9.78;95.09
72118;BME280;59992;47.490;8.736;2023-10-13T04:14:10;96761.14;;;9.75;94.74
72118;BME280;59992;47.490;8.736;2023-10-13T04:17:33;96759.75;;;9.73;94.98
72118;BME280;59992;47.490;8.736;2023-10-13T04:20:29;96762.77;;;9.73;96.35
72118;BME280;59992;47.490;8.736;2023-10-13T04:23:28;96757.36;;;9.72;94.19
72118;BME280;59992;47.490;8.736;2023-10-13T04:26:38;96756.73;;;9.70;95.58
72118;BME280;59992;47.490;8.736;2023-10-13T04:29:48;96757.59;;;9.68;95.42
72118;BME280;59992;47.490;8.736;2023-10-13T04:32:46;96753.78;;;9.61;95.77
72118;BME280;59992;47.490;8.736;2023-10-13T04:35:55;96752.95;;;9.55;95.62
72118;BME280;59992;47.490;8.736;2023-10-13T04:38:48;96750.94;;;9.51;96.05
72118;BME280;59992;47.490;8.736;2023-10-13T04:41:49;96749.21;;;9.49;95.80
72118;BME280;59992;47.490;8.736;2023-10-13T04:44:59;96749.52;;;9.46;95.46
72118;BME280;59992;47.490;8.736;2023-10-13T04:48:06;96748.57;;;9.43;95.82
72118;BME280;59992;47.490;8.736;2023-10-13T04:51:17;96747.75;;;9.41;96.14
72118;BME280;59992;47.490;8.736;2023-10-13T04:54:12;96748.96;;;9.40;96.30
72118;BME280;59992;47.490;8.736;2023-10-13T04:57:15;96748.33;;;9.39;95.59
72118;BME280;59992;47.490;8.736;2023-10-13T05:00:22;96741.36;;;9.35;96.76
72118;BME280;59992;47.490;8.736;2023-10-13T05:03:29;96742.84;;;9.33;96.85
72118;BME280;59992;47.490;8.736;2023-10-13T05:06:52;96741.16;;;9.29;96.38
72118;BME280;59992;47.490;8.736;2023-10-13T05:10:00;96740.20;;;9.26;96.32
72118;BME280;59992;47.490;8.736;2023-10-13T05:13:08;96745.73;;;9.23;97.19
72118;BME280;59992;47.490;8.736;2023-10-13T05:16:15;96747.29;;;9.22;96.86
72118;BME280;59992;47.490;8.736;2023-10-13T05:19:23;96744.47;;;9.17;97.33
72118;BME280;59992;47.490;8.736;2023-10-13T05:22:31;96749.48;;;9.16;97.66
72118;BME280;59992;47.490;8.736;2023-10-13T05:25:39;96752.64;;;9.13;98.00
72118;BME280;59992;47.490;8.736;2023-10-13T05:28:47;96749.95;;;9.11;96.90
72118;BME280;59992;47.490;8.736;2023-10-13T05:31:55;96751.76;;;9.11;97.26
72118;BME280;59992;47.490;8.736;2023-10-13T05:35:04;96750.98;;;9.10;96.94
72118;BME280;59992;47.490;8.736;2023-10-13T05:38:11;96753.68;;;9.09;97.53
72118;BME280;59992;47.490;8.736;2023-10-13T05:41:19;96754.16;;;9.07;97.91
72118;BME280;59992;47.490;8.736;2023-10-13T05:44:28;96759.45;;;9.07;97.85
72118;BME280;59992;47.490;8.736;2023-10-13T05:47:26;96759.00;;;9.08;97.47
72118;BME280;59992;47.490;8.736;2023-10-13T05:50:34;96756.45;;;9.08;97.59
72118;BME280;59992;47.490;8.736;2023-10-13T05:53:35;96752.75;;;9.12;98.06
72118;BME280;59992;47.490;8.736;2023-10-13T05:56:43;96753.13;;;9.12;97.61
72118;BME280;59992;47.490;8.736;2023-10-13T05:59:50;96754.23;;;9.14;98.12
72118;BME280;59992;47.490;8.736;2023-10-13T06:02:58;96760.45;;;9.16;97.40
72118;BME280;59992;47.490;8.736;2023-10-13T06:06:09;96760.02;;;9.20;97.43
72118;BME280;59992;47.490;8.736;2023-10-13T06:09:16;96759.79;;;9.23;97.68
72118;BME280;59992;47.490;8.736;2023-10-13T06:12:23;96761.87;;;9.29;96.88
72118;BME280;59992;47.490;8.736;2023-10-13T06:15:37;96765.52;;;9.37;96.44
72118;BME280;59992;47.490;8.736;2023-10-13T06:18:45;96763.94;;;9.48;97.06
72118;BME280;59992;47.490;8.736;2023-10-13T06:21:53;96758.21;;;9.68;96.08
72118;BME280;59992;47.490;8.736;2023-10-13T06:25:00;96760.66;;;10.02;95.18
72118;BME280;59992;47.490;8.736;2023-10-13T06:28:08;96749.20;;;10.42;93.84
72118;BME280;59992;47.490;8.736;2023-10-13T06:31:16;96758.48;;;10.98;90.40
72118;BME280;59992;47.490;8.736;2023-10-13T06:34:11;96756.80;;;11.41;88.29
72118;BME280;59992;47.490;8.736;2023-10-13T06:37:05;96760.85;;;11.87;85.69
72118;BME280;59992;47.490;8.736;2023-10-13T06:40:12;96763.35;;;12.30;83.57
72118;BME280;59992;47.490;8.736;2023-10-13T06:43:11;96767.31;;;12.75;81.56
72118;BME280;59992;47.490;8.736;2023-10-13T06:46:05;96766.36;;;13.21;80.25
72118;BME280;59992;47.490;8.736;2023-10-13T06:49:03;96769.11;;;13.66;78.34
72118;BME280;59992;47.490;8.736;2023-10-13T06:51:53;96774.87;;;14.02;76.81
72118;BME280;59992;47.490;8.736;2023-10-13T06:54:51;96773.89;;;14.37;75.95
72118;BME280;59992;47.490;8.736;2023-10-13T06:57:42;96772.19;;;14.76;74.12
72118;BME280;59992;47.490;8.736;2023-10-13T07:00:33;96775.14;;;15.06;73.04
72118;BME280;59992;47.490;8.736;2023-10-13T07:03:26;96773.40;;;15.43;73.19
72118;BME280;59992;47.490;8.736;2023-10-13T07:06:16;96774.73;;;15.82;69.85
72118;BME280;59992;47.490;8.736;2023-10-13T07:09:08;96771.71;;;16.22;68.12
72118;BME280;59992;47.490;8.736;2023-10-13T07:12:08;96779.55;;;16.56;66.66
72118;BME280;59992;47.490;8.736;2023-10-13T07:15:06;96779.60;;;16.89;67.48
72118;BME280;59992;47.490;8.736;2023-10-13T07:18:08;96789.05;;;17.27;65.37
72118;BME280;59992;47.490;8.736;2023-10-13T07:21:01;96786.83;;;17.60;64.86
72118;BME280;59992;47.490;8.736;2023-10-13T07:23:58;96787.92;;;17.92;61.88
72118;BME280;59992;47.490;8.736;2023-10-13T07:27:00;96795.66;;;18.22;60.89
72118;BME280;59992;47.490;8.736;2023-10-13T07:29:55;96797.95;;;18.34;59.74
72118;BME280;59992;47.490;8.736;2023-10-13T07:33:02;96800.60;;;18.36;60.20
72118;BME280;59992;47.490;8.736;2023-10-13T07:36:02;96799.57;;;18.46;60.80
72118;BME280;59992;47.490;8.736;2023-10-13T07:39:00;96795.70;;;18.59;59.71
72118;BME280;59992;47.490;8.736;2023-10-13T07:42:09;96797.54;;;18.60;60.02
72118;BME280;59992;47.490;8.736;2023-10-13T07:45:05;96802.34;;;18.66;59.89
72118;BME280;59992;47.490;8.736;2023-10-13T07:47:56;96799.77;;;18.74;59.11
72118;BME280;59992;47.490;8.736;2023-10-13T07:50:58;96794.38;;;18.85;58.58
72118;BME280;59992;47.490;8.736;2023-10-13T07:53:50;96791.05;;;19.05;57.75
72118;BME280;59992;47.490;8.736;2023-10-13T07:56:41;96793.64;;;19.16;58.11
72118;BME280;59992;47.490;8.736;2023-10-13T07:59:31;96793.73;;;19.27;58.91
72118;BME280;59992;47.490;8.736;2023-10-13T08:02:23;96788.28;;;19.33;58.97
72118;BME280;59992;47.490;8.736;2023-10-13T08:05:32;96788.39;;;19.45;58.50
72118;BME280;59992;47.490;8.736;2023-10-13T08:08:32;96786.27;;;19.65;57.64
72118;BME280;59992;47.490;8.736;2023-10-13T08:11:28;96783.92;;;19.73;57.46
72118;BME280;59992;47.490;8.736;2023-10-13T08:14:23;96776.90;;;19.76;58.32
72118;BME280;59992;47.490;8.736;2023-10-13T08:17:18;96774.91;;;19.83;56.78
72118;BME280;59992;47.490;8.736;2023-10-13T08:20:14;96770.54;;;19.87;57.14
72118;BME280;59992;47.490;8.736;2023-10-13T08:23:06;96771.22;;;19.91;57.45
72118;BME280;59992;47.490;8.736;2023-10-13T08:26:24;96769.24;;;19.93;56.96
72118;BME280;59992;47.490;8.736;2023-10-13T08:29:29;96768.88;;;20.00;57.46
72118;BME280;59992;47.490;8.736;2023-10-13T08:32:37;96764.83;;;20.02;56.82
72118;BME280;59992;47.490;8.736;2023-10-13T08:35:42;96761.50;;;20.06;55.98
72118;BME280;59992;47.490;8.736;2023-10-13T08:38:43;96762.74;;;20.07;57.21
72118;BME280;59992;47.490;8.736;2023-10-13T08:41:42;96759.42;;;20.07;55.57
72118;BME280;59992;47.490;8.736;2023-10-13T08:45:02;96756.23;;;20.05;57.65
72118;BME280;59992;47.490;8.736;2023-10-13T08:48:11;96750.66;;;20.04;58.33
72118;BME280;59992;47.490;8.736;2023-10-13T08:51:04;96747.34;;;19.97;59.20
72118;BME280;59992;47.490;8.736;2023-10-13T08:54:01;96744.98;;;19.89;59.57
72118;BME280;59992;47.490;8.736;2023-10-13T08:56:58;96742.12;;;19.82;60.91
72118;BME280;59992;47.490;8.736;2023-10-13T08:59:55;96735.12;;;19.78;60.50
72118;BME280;59992;47.490;8.736;2023-10-13T09:02:52;96736.37;;;19.73;60.91
72118;BME280;59992;47.490;8.736;2023-10-13T09:06:05;96733.83;;;19.72;61.80
72118;BME280;59992;47.490;8.736;2023-10-13T09:09:05;96733.83;;;19.73;61.38
72118;BME280;59992;47.490;8.736;2023-10-13T09:11:57;96730.48;;;19.79;61.41
72118;BME280;59992;47.490;8.736;2023-10-13T09:14:57;96724.91;;;19.88;61.69
72118;BME280;59992;47.490;8.736;2023-10-13T09:17:49;96724.41;;;19.94;61.77
72118;BME280;59992;47.490;8.736;2023-10-13T09:20:42;96728.27;;;19.94;60.38
72118;BME280;59992;47.490;8.736;2023-10-13T09:23:34;96725.63;;;19.98;60.58
72118;BME280;59992;47.490;8.736;2023-10-13T09:26:37;96724.34;;;20.08;58.55
72118;BME280;59992;47.490;8.736;2023-10-13T09:29:27;96719.39;;;20.20;60.30
72118;BME280;59992;47.490;8.736;2023-10-13T09:32:17;96718.42;;;20.30;58.34
72118;BME280;59992;47.490;8.736;2023-10-13T09:35:10;96717.57;;;20.40;57.91
72118;BME280;59992;47.490;8.736;2023-10-13T09:38:03;96714.59;;;20.48;56.21
72118;BME280;59992;47.490;8.736;2023-10-13T09:40:53;96714.14;;;20.61;54.00
72118;BME280;59992;47.490;8.736;2023-10-13T09:43:46;96701.38;;;20.70;54.39
72118;BME280;59992;47.490;8.736;2023-10-13T09:46:41;96707.30;;;20.89;53.05
72118;BME280;59992;47.490;8.736;2023-10-13T09:49:38;96707.02;;;21.04;54.04
72118;BME280;59992;47.490;8.736;2023-10-13T09:52:36;96704.29;;;21.17;53.90
72118;BME280;59992;47.490;8.736;2023-10-13T09:55:30;96697.56;;;21.29;54.57
72118;BME280;59992;47.490;8.736;2023-10-13T09:58:24;96694.14;;;21.36;54.72
72118;BME280;59992;47.490;8.736;2023-10-13T10:01:29;96690.16;;;21.40;50.31
72118;BME280;59992;47.490;8.736;2023-10-13T10:04:23;96689.47;;;21.46;52.32
72118;BME280;59992;47.490;8.736;2023-10-13T10:07:13;96687.23;;;21.48;50.96
72118;BME280;59992;47.490;8.736;2023-10-13T10:10:13;96683.64;;;21.53;51.80
72118;BME280;59992;47.490;8.736;2023-10-13T10:13:15;96681.62;;;21.62;52.21
72118;BME280;59992;47.490;8.736;2023-10-13T10:16:12;96680.09;;;21.70;53.21
72118;BME280;59992;47.490;8.736;2023-10-13T10:19:09;96679.17;;;21.75;47.72
72118;BME280;59992;47.490;8.736;2023-10-13T10:22:05;96676.30;;;21.80;45.63
72118;BME280;59992;47.490;8.736;2023-10-13T10:25:07;96672.38;;;21.88;49.46
72118;BME280;59992;47.490;8.736;2023-10-13T10:28:13;96671.77;;;21.99;47.71
72118;BME280;59992;47.490;8.736;2023-10-13T10:31:07;96670.90;;;22.09;45.94
72118;BME280;59992;47.490;8.736;2023-10-13T10:33:59;96660.20;;;22.18;46.93
72118;BME280;59992;47.490;8.736;2023-10-13T10:37:00;96660.40;;;22.26;48.79
72118;BME280;59992;47.490;8.736;2023-10-13T10:39:58;96655.81;;;22.28;43.90
72118;BME280;59992;47.490;8.736;2023-10-13T10:42:52;96649.65;;;22.35;46.13
72118;BME280;59992;47.490;8.736;2023-10-13T10:45:48;96641.67;;;22.40;45.33
72118;BME280;59992;47.490;8.736;2023-10-13T10:48:39;96640.10;;;22.49;45.63
72118;BME280;59992;47.490;8.736;2023-10-13T10:51:35;96640.10;;;22.53;44.05
72118;BME280;59992;47.490;8.736;2023-10-13T10:54:32;96633.72;;;22.55;43.89
72118;BME280;59992;47.490;8.736;2023-10-13T10:57:22;96626.21;;;22.58;45.53
72118;BME280;59992;47.490;8.736;2023-10-13T11:00:22;96626.05;;;22.63;45.73
72118;BME280;59992;47.490;8.736;2023-10-13T11:03:32;96617.27;;;22.69;43.89
72118;BME280;59992;47.490;8.736;2023-10-13T11:06:28;96611.81;;;22.76;45.13
72118;BME280;59992;47.490;8.736;2023-10-13T11:09:28;96611.47;;;22.79;42.18
72118;BME280;59992;47.490;8.736;2023-10-13T11:12:25;96607.39;;;22.76;41.16
72118;BME280;59992;47.490;8.736;2023-10-13T11:15:16;96602.44;;;22.81;42.78
72118;BME280;59992;47.490;8.736;2023-10-13T11:18:11;96599.02;;;22.88;43.70
72118;BME280;59992;47.490;8.736;2023-10-13T11:21:05;96592.23;;;22.96;44.41
72118;BME280;59992;47.490;8.736;2023-10-13T11:23:58;96586.88;;;22.99;42.63
72118;BME280;59992;47.490;8.736;2023-10-13T11:26:58;96586.13;;;23.05;44.73
72118;BME280;59992;47.490;8.736;2023-10-13T11:29:51;96578.11;;;23.06;43.07
72118;BME280;59992;47.490;8.736;2023-10-13T11:32:42;96571.96;;;23.09;44.20
72118;BME280;59992;47.490;8.736;2023-10-13T11:35:32;96567.88;;;23.16;44.30
72118;BME280;59992;47.490;8.736;2023-10-13T11:38:40;96566.83;;;23.23;43.73
72118;BME280;59992;47.490;8.736;2023-10-13T11:41:38;96563.65;;;23.27;42.79
72118;BME280;59992;47.490;8.736;2023-10-13T11:44:35;96557.11;;;23.32;42.71
72118;BME280;59992;47.490;8.736;2023-10-13T11:47:32;96549.92;;;23.34;39.44
72118;BME280;59992;47.490;8.736;2023-10-13T11:50:36;96546.57;;;23.41;40.79
72118;BME280;59992;47.490;8.736;2023-10-13T11:53:27;96542.20;;;23.44;43.26
72118;BME280;59992;47.490;8.736;2023-10-13T11:56:18;96535.70;;;23.44;41.48
72118;BME280;59992;47.490;8.736;2023-10-13T11:59:09;96532.70;;;23.46;42.38
72118;BME280;59992;47.490;8.736;2023-10-13T12:02:06;96525.40;;;23.49;40.61
72118;BME280;59992;47.490;8.736;2023-10-13T12:05:14;96525.58;;;23.60;44.28
72118;BME280;59992;47.490;8.736;2023-10-13T12:08:06;96520.38;;;23.66;40.95
72118;BME280;59992;47.490;8.736;2023-10-13T12:11:08;96510.39;;;23.73;43.12
72118;BME280;59992;47.490;8.736;2023-10-13T12:14:12;96506.31;;;23.78;42.26
72118;BME280;59992;47.490;8.736;2023-10-13T12:17:08;96498.63;;;23.82;41.74
72118;BME280;59992;47.490;8.736;2023-10-13T12:20:00;96499.89;;;23.87;43.27
72118;BME280;59992;47.490;8.736;2023-10-13T12:22:53;96491.45;;;23.91;43.45
72118;BME280;59992;47.490;8.736;2023-10-13T12:25:45;96487.61;;;23.95;45.20
72118;BME280;59992;47.490;8.736;2023-10-13T12:28:46;96484.71;;;23.99;43.90
72118;BME280;59992;47.490;8.736;2023-10-13T12:31:41;96480.78;;;23.99;44.58
72118;BME280;59992;47.490;8.736;2023-10-13T12:34:40;96478.98;;;24.01;44.38
72118;BME280;59992;47.490;8.736;2023-10-13T12:37:46;96477.42;;;24.06;43.03
72118;BME280;59992;47.490;8.736;2023-10-13T12:40:39;96472.63;;;24.09;42.04
72118;BME280;59992;47.490;8.736;2023-10-13T12:43:59;96471.89;;;24.14;43.25
72118;BME280;59992;47.490;8.736;2023-10-13T12:47:07;96465.77;;;24.14;41.50
72118;BME280;59992;47.490;8.736;2023-10-13T12:50:15;96465.66;;;24.19;39.25
72118;BME280;59992;47.490;8.736;2023-10-13T12:53:15;96456.55;;;24.23;39.41
72118;BME280;59992;47.490;8.736;2023-10-13T12:56:05;96461.00;;;24.30;42.26
72118;BME280;59992;47.490;8.736;2023-10-13T12:59:00;96455.62;;;24.32;37.86
72118;BME280;59992;47.490;8.736;2023-10-13T13:01:58;96450.83;;;24.39;38.79
72118;BME280;59992;47.490;8.736;2023-10-13T13:04:48;96447.79;;;24.45;41.80
72118;BME280;59992;47.490;8.736;2023-10-13T13:07:43;96445.43;;;24.46;41.74
72118;BME280;59992;47.490;8.736;2023-10-13T13:10:36;96439.19;;;24.42;36.97
72118;BME280;59992;47.490;8.736;2023-10-13T13:13:26;96431.08;;;24.43;40.28
72118;BME280;59992;47.490;8.736;2023-10-13T13:16:17;96433.36;;;24.44;42.11
72118;BME280;59992;47.490;8.736;2023-10-13T13:19:13;96432.30;;;24.45;42.72
72118;BME280;59992;47.490;8.736;2023-10-13T13:22:04;96434.85;;;24.44;40.55
72118;BME280;59992;47.490;8.736;2023-10-13T13:24:54;96425.88;;;24.34;37.14
72118;BME280;59992;47.490;8.736;2023-10-13T13:27:44;96424.06;;;24.39;37.31
72118;BME280;59992;47.490;8.736;2023-10-13T13:30:35;96421.87;;;24.45;37.34
72118;BME280;59992;47.490;8.736;2023-10-13T13:33:26;96414.64;;;24.38;35.88
72118;BME280;59992;47.490;8.736;2023-10-13T13:36:22;96409.52;;;24.42;34.81
72118;BME280;59992;47.490;8.736;2023-10-13T13:39:12;96411.38;;;24.49;38.23
72118;BME280;59992;47.490;8.736;2023-10-13T13:42:06;96406.92;;;24.52;36.26
72118;BME280;59992;47.490;8.736;2023-10-13T13:44:58;96403.14;;;24.53;39.29
72118;BME280;59992;47.490;8.736;2023-10-13T13:47:49;96397.96;;;24.43;38.81
72118;BME280;59992;47.490;8.736;2023-10-13T13:50:42;96391.77;;;24.37;34.14
72118;BME280;59992;47.490;8.736;2023-10-13T13:53:33;96390.94;;;24.40;34.99
72118;BME280;59992;47.490;8.736;2023-10-13T13:56:27;96386.15;;;24.45;35.38
72118;BME280;59992;47.490;8.736;2023-10-13T13:59:19;96385.33;;;24.46;38.96
72118;BME280;59992;47.490;8.736;2023-10-13T14:02:09;96378.42;;;24.38;33.54
72118;BME280;59992;47.490;8.736;2023-10-13T14:05:09;96375.36;;;24.39;34.08
72118;BME280;59992;47.490;8.736;2023-10-13T14:08:05;96369.61;;;24.36;33.55
72118;BME280;59992;47.490;8.736;2023-10-13T14:11:00;96362.72;;;24.33;35.08
72118;BME280;59992;47.490;8.736;2023-10-13T14:14:08;96360.27;;;24.35;33.14
72118;BME280;59992;47.490;8.736;2023-10-13T14:17:01;96358.88;;;24.37;35.18
72118;BME280;59992;47.490;8.736;2023-10-13T14:19:58;96354.55;;;24.39;36.90
72118;BME280;59992;47.490;8.736;2023-10-13T14:22:48;96352.73;;;24.29;33.85
72118;BME280;59992;47.490;8.736;2023-10-13T14:25:41;96352.38;;;24.25;33.61
72118;BME280;59992;47.490;8.736;2023-10-13T14:28:33;96351.98;;;24.23;34.30
72118;BME280;59992;47.490;8.736;2023-10-13T14:31:23;96356.52;;;24.21;34.07
72118;BME280;59992;47.490;8.736;2023-10-13T14:34:14;96353.67;;;24.22;35.28
72118;BME280;59992;47.490;8.736;2023-10-13T14:37:04;96350.64;;;24.19;33.92
72118;BME280;59992;47.490;8.736;2023-10-13T14:39:55;96347.61;;;24.19;34.68
72118;BME280;59992;47.490;8.736;2023-10-13T14:42:45;96344.96;;;24.12;33.70
72118;BME280;59992;47.490;8.736;2023-10-13T14:45:38;96345.32;;;24.11;36.02
72118;BME280;59992;47.490;8.736;2023-10-13T14:48:28;96345.77;;;24.05;35.40
72118;BME280;59992;47.490;8.736;2023-10-13T14:51:19;96339.02;;;23.97;35.22
72118;BME280;59992;47.490;8.736;2023-10-13T14:54:09;96332.85;;;23.89;34.02
72118;BME280;59992;47.490;8.736;2023-10-13T14:57:00;96333.91;;;23.85;34.26
72118;BME280;59992;47.490;8.736;2023-10-13T14:59:51;96329.85;;;23.80;34.70
72118;BME280;59992;47.490;8.736;2023-10-13T15:02:41;96327.55;;;23.73;35.79
72118;BME280;59992;47.490;8.736;2023-10-13T15:05:32;96329.56;;;23.65;34.36
72118;BME280;59992;47.490;8.736;2023-10-13T15:08:24;96330.21;;;23.59;34.60
72118;BME280;59992;47.490;8.736;2023-10-13T15:11:16;96328.49;;;23.48;34.64
72118;BME280;59992;47.490;8.736;2023-10-13T15:14:08;96327.86;;;23.43;35.10
72118;BME280;59992;47.490;8.736;2023-10-13T15:16:58;96329.77;;;23.38;34.72
72118;BME280;59992;47.490;8.736;2023-10-13T15:19:49;96326.33;;;23.31;34.64
72118;BME280;59992;47.490;8.736;2023-10-13T15:22:39;96324.52;;;23.27;35.41
72118;BME280;59992;47.490;8.736;2023-10-13T15:25:30;96321.36;;;23.20;34.53
72118;BME280;59992;47.490;8.736;2023-10-13T15:28:28;96317.63;;;23.13;35.96
72118;BME280;59992;47.490;8.736;2023-10-13T15:31:20;96319.95;;;23.05;37.04
72118;BME280;59992;47.490;8.736;2023-10-13T15:34:14;96314.40;;;22.89;37.67
72118;BME280;59992;47.490;8.736;2023-10-13T15:37:06;96310.45;;;22.72;37.20
72118;BME280;59992;47.490;8.736;2023-10-13T15:40:01;96313.00;;;22.58;38.90